sensor_id;sensor_type;location;lat;lon;timestamp;P1;durP1;ratioP1;P2;durP2;ratioP2
37647;SDS011;23490;53.656;10.076;2022-11-15T00:00:49;43.75;;;21.52;;
37647;SDS011;23490;53.656;10.076;2022-11-15T00:03:15;46.28;;;22.70;;
37647;SDS011;23490;53.656;10.076;2022-11-15T00:05:42;48.88;;;22.33;;
37647;SDS011;23490;53.656;10.076;2022-11-15T00:08:07;46.47;;;21.58;;
37647;SDS011;23490;53.656;10.076;2022-11-15T00:10:33;43.85;;;22.55;;
37647;SDS011;23490;53.656;10.076;2022-11-15T00:12:58;46.78;;;22.33;;
37647;SDS011;23490;53.656;10.076;2022-11-15T00:15:24;40.47;;;20.85;;
37647;SDS011;23490;53.656;10.076;2022-11-15T00:17:49;43.20;;;21.17;;
37647;SDS011;23490;53.656;10.076;2022-11-15T00:20:15;44.53;;;22.58;;
37647;SDS011;23490;53.656;10.076;2022-11-15T00:22:42;42.97;;;20.33;;
37647;SDS011;23490;53.656;10.076;2022-11-15T00:25:07;41.63;;;21.15;;
37647;SDS011;23490;53.656;10.076;2022-11-15T00:27:32;47.20;;;22.13;;
37647;SDS011;23490;53.656;10.076;2022-11-15T00:29:58;42.30;;;21.67;;
37647;SDS011;23490;53.656;10.076;2022-11-15T00:32:23;40.20;;;20.35;;
37647;SDS011;23490;53.656;10.076;2022-11-15T00:34:49;43.47;;;22.27;;
37647;SDS011;23490;53.656;10.076;2022-11-15T00:37:14;45.08;;;22.17;;
37647;SDS011;23490;53.656;10.076;2022-11-15T00:39:39;41.70;;;20.35;;
37647;SDS011;23490;53.656;10.076;2022-11-15T00:42:05;39.15;;;21.27;;
37647;SDS011;23490;53.656;10.076;2022-11-15T00:44:30;40.97;;;21.02;;
37647;SDS011;23490;53.656;10.076;2022-11-15T00:46:55;39.47;;;20.95;;
37647;SDS011;23490;53.656;10.076;2022-11-15T00:49:21;40.88;;;21.67;;
37647;SDS011;23490;53.656;10.076;2022-11-15T00:51:46;41.35;;;20.65;;
37647;SDS011;23490;53.656;10.076;2022-11-15T00:54:11;44.13;;;21.30;;
37647;SDS011;23490;53.656;10.076;2022-11-15T00:56:36;43.50;;;23.15;;
37647;SDS011;23490;53.656;10.076;2022-11-15T00:59:02;42.13;;;21.67;;
37647;SDS011;23490;53.656;10.076;2022-11-15T01:01:27;39.15;;;20.65;;
37647;SDS011;23490;53.656;10.076;2022-11-15T01:03:53;38.80;;;20.52;;
37647;SDS011;23490;53.656;10.076;2022-11-15T01:06:18;38.40;;;19.85;;
37647;SDS011;23490;53.656;10.076;2022-11-15T01:08:43;39.05;;;20.60;;
37647;SDS011;23490;53.656;10.076;2022-11-15T01:11:11;43.00;;;21.40;;
37647;SDS011;23490;53.656;10.076;2022-11-15T01:13:37;43.28;;;21.65;;
37647;SDS011;23490;53.656;10.076;2022-11-15T01:16:08;41.95;;;20.40;;
37647;SDS011;23490;53.656;10.076;2022-11-15T01:18:36;41.38;;;20.85;;
37647;SDS011;23490;53.656;10.076;2022-11-15T01:21:06;37.28;;;19.45;;
37647;SDS011;23490;53.656;10.076;2022-11-15T01:26:02;36.85;;;19.90;;
37647;SDS011;23490;53.656;10.076;2022-11-15T01:28:29;38.97;;;19.65;;
37647;SDS011;23490;53.656;10.076;2022-11-15T01:31:00;42.72;;;20.77;;
37647;SDS011;23490;53.656;10.076;2022-11-15T01:33:27;40.55;;;20.38;;
37647;SDS011;23490;53.656;10.076;2022-11-15T01:35:53;39.35;;;20.08;;
37647;SDS011;23490;53.656;10.076;2022-11-15T01:38:18;45.03;;;19.88;;
37647;SDS011;23490;53.656;10.076;2022-11-15T01:40:43;43.55;;;20.88;;
37647;SDS011;23490;53.656;10.076;2022-11-15T01:43:22;42.70;;;21.33;;
37647;SDS011;23490;53.656;10.076;2022-11-15T01:46:06;39.00;;;20.58;;
37647;SDS011;23490;53.656;10.076;2022-11-15T01:48:44;38.63;;;19.23;;
37647;SDS011;23490;53.656;10.076;2022-11-15T01:51:10;42.33;;;20.13;;
37647;SDS011;23490;53.656;10.076;2022-11-15T01:53:38;37.28;;;18.98;;
37647;SDS011;23490;53.656;10.076;2022-11-15T01:56:08;40.90;;;20.27;;
37647;SDS011;23490;53.656;10.076;2022-11-15T02:01:04;40.95;;;19.95;;
37647;SDS011;23490;53.656;10.076;2022-11-15T02:03:32;35.42;;;17.67;;
37647;SDS011;23490;53.656;10.076;2022-11-15T02:06:03;34.20;;;18.98;;
37647;SDS011;23490;53.656;10.076;2022-11-15T02:08:30;34.70;;;18.30;;
37647;SDS011;23490;53.656;10.076;2022-11-15T02:10:55;35.40;;;18.73;;
37647;SDS011;23490;53.656;10.076;2022-11-15T02:13:20;36.55;;;19.30;;
37647;SDS011;23490;53.656;10.076;2022-11-15T02:15:59;36.03;;;18.52;;
37647;SDS011;23490;53.656;10.076;2022-11-15T02:18:57;37.15;;;17.73;;
37647;SDS011;23490;53.656;10.076;2022-11-15T02:21:38;35.28;;;18.67;;
37647;SDS011;23490;53.656;10.076;2022-11-15T02:24:16;38.40;;;19.73;;
37647;SDS011;23490;53.656;10.076;2022-11-15T02:32:40;32.50;;;16.83;;
37647;SDS011;23490;53.656;10.076;2022-11-15T02:40:49;31.95;;;16.83;;
37647;SDS011;23490;53.656;10.076;2022-11-15T02:44:03;40.03;;;17.50;;
37647;SDS011;23490;53.656;10.076;2022-11-15T02:46:29;30.23;;;16.02;;
37647;SDS011;23490;53.656;10.076;2022-11-15T02:49:14;33.53;;;17.13;;
37647;SDS011;23490;53.656;10.076;2022-11-15T02:51:40;32.55;;;16.67;;
37647;SDS011;23490;53.656;10.076;2022-11-15T02:54:20;36.58;;;17.60;;
37647;SDS011;23490;53.656;10.076;2022-11-15T02:56:47;32.45;;;16.00;;
37647;SDS011;23490;53.656;10.076;2022-11-15T03:04:30;33.17;;;16.88;;
37647;SDS011;23490;53.656;10.076;2022-11-15T03:07:01;31.23;;;16.65;;
37647;SDS011;23490;53.656;10.076;2022-11-15T03:09:43;30.80;;;15.68;;
37647;SDS011;23490;53.656;10.076;2022-11-15T03:12:24;30.40;;;16.33;;
37647;SDS011;23490;53.656;10.076;2022-11-15T03:15:20;30.58;;;15.50;;
37647;SDS011;23490;53.656;10.076;2022-11-15T03:17:55;32.33;;;16.10;;
37647;SDS011;23490;53.656;10.076;2022-11-15T03:20:33;32.20;;;16.00;;
37647;SDS011;23490;53.656;10.076;2022-11-15T03:23:01;30.70;;;16.25;;
37647;SDS011;23490;53.656;10.076;2022-11-15T03:25:30;30.85;;;16.02;;
37647;SDS011;23490;53.656;10.076;2022-11-15T03:27:58;33.33;;;16.45;;
37647;SDS011;23490;53.656;10.076;2022-11-15T03:30:28;29.48;;;15.73;;
37647;SDS011;23490;53.656;10.076;2022-11-15T03:32:57;32.28;;;16.90;;
37647;SDS011;23490;53.656;10.076;2022-11-15T03:35:27;28.90;;;14.90;;
37647;SDS011;23490;53.656;10.076;2022-11-15T03:40:53;31.17;;;16.55;;
37647;SDS011;23490;53.656;10.076;2022-11-15T03:43:30;36.95;;;18.00;;
37647;SDS011;23490;53.656;10.076;2022-11-15T03:46:02;32.17;;;15.88;;
37647;SDS011;23490;53.656;10.076;2022-11-15T03:48:33;31.38;;;16.48;;
37647;SDS011;23490;53.656;10.076;2022-11-15T03:51:03;31.33;;;15.93;;
37647;SDS011;23490;53.656;10.076;2022-11-15T03:53:29;31.67;;;15.55;;
37647;SDS011;23490;53.656;10.076;2022-11-15T03:55:56;31.17;;;16.00;;
37647;SDS011;23490;53.656;10.076;2022-11-15T03:58:21;31.17;;;15.52;;
37647;SDS011;23490;53.656;10.076;2022-11-15T04:00:46;29.05;;;15.80;;
37647;SDS011;23490;53.656;10.076;2022-11-15T04:03:12;32.65;;;17.23;;
37647;SDS011;23490;53.656;10.076;2022-11-15T04:05:37;29.38;;;15.00;;
37647;SDS011;23490;53.656;10.076;2022-11-15T04:08:02;28.27;;;15.57;;
37647;SDS011;23490;53.656;10.076;2022-11-15T04:10:28;30.63;;;16.35;;
37647;SDS011;23490;53.656;10.076;2022-11-15T04:12:53;28.70;;;15.48;;
37647;SDS011;23490;53.656;10.076;2022-11-15T04:15:20;31.05;;;15.30;;
37647;SDS011;23490;53.656;10.076;2022-11-15T04:20:26;34.30;;;15.52;;
37647;SDS011;23490;53.656;10.076;2022-11-15T04:23:18;29.70;;;15.75;;
37647;SDS011;23490;53.656;10.076;2022-11-15T04:26:07;28.30;;;15.73;;
37647;SDS011;23490;53.656;10.076;2022-11-15T04:28:35;28.25;;;14.68;;
37647;SDS011;23490;53.656;10.076;2022-11-15T04:31:20;34.30;;;16.58;;
37647;SDS011;23490;53.656;10.076;2022-11-15T04:33:46;34.65;;;16.25;;
37647;SDS011;23490;53.656;10.076;2022-11-15T04:36:11;27.25;;;14.35;;
37647;SDS011;23490;53.656;10.076;2022-11-15T04:38:55;28.05;;;14.73;;
37647;SDS011;23490;53.656;10.076;2022-11-15T04:41:20;31.25;;;14.98;;
37647;SDS011;23490;53.656;10.076;2022-11-15T04:43:46;28.50;;;15.50;;
37647;SDS011;23490;53.656;10.076;2022-11-15T04:46:11;34.88;;;16.55;;
37647;SDS011;23490;53.656;10.076;2022-11-15T04:48:37;28.13;;;14.85;;
37647;SDS011;23490;53.656;10.076;2022-11-15T04:51:02;30.83;;;15.82;;
37647;SDS011;23490;53.656;10.076;2022-11-15T04:53:27;29.88;;;15.02;;
37647;SDS011;23490;53.656;10.076;2022-11-15T04:55:53;31.85;;;15.32;;
37647;SDS011;23490;53.656;10.076;2022-11-15T04:58:18;31.17;;;15.40;;
37647;SDS011;23490;53.656;10.076;2022-11-15T05:00:43;30.95;;;14.13;;
37647;SDS011;23490;53.656;10.076;2022-11-15T05:03:09;31.77;;;15.45;;
37647;SDS011;23490;53.656;10.076;2022-11-15T05:05:53;28.88;;;15.63;;
37647;SDS011;23490;53.656;10.076;2022-11-15T05:08:19;32.03;;;16.17;;
37647;SDS011;23490;53.656;10.076;2022-11-15T05:10:44;29.30;;;15.43;;
37647;SDS011;23490;53.656;10.076;2022-11-15T05:13:10;30.40;;;16.15;;
37647;SDS011;23490;53.656;10.076;2022-11-15T05:15:35;30.05;;;15.30;;
37647;SDS011;23490;53.656;10.076;2022-11-15T05:18:01;32.08;;;15.93;;
37647;SDS011;23490;53.656;10.076;2022-11-15T05:20:26;31.60;;;16.10;;
37647;SDS011;23490;53.656;10.076;2022-11-15T05:22:52;32.85;;;15.65;;
37647;SDS011;23490;53.656;10.076;2022-11-15T05:25:19;32.95;;;16.50;;
37647;SDS011;23490;53.656;10.076;2022-11-15T05:27:44;35.92;;;16.15;;
37647;SDS011;23490;53.656;10.076;2022-11-15T05:30:09;35.80;;;16.77;;
37647;SDS011;23490;53.656;10.076;2022-11-15T05:32:35;36.10;;;17.30;;
37647;SDS011;23490;53.656;10.076;2022-11-15T05:35:01;30.75;;;17.63;;
37647;SDS011;23490;53.656;10.076;2022-11-15T05:37:28;32.65;;;16.90;;
37647;SDS011;23490;53.656;10.076;2022-11-15T05:39:54;32.40;;;16.80;;
37647;SDS011;23490;53.656;10.076;2022-11-15T05:42:19;33.55;;;16.98;;
37647;SDS011;23490;53.656;10.076;2022-11-15T05:44:46;32.38;;;17.30;;
37647;SDS011;23490;53.656;10.076;2022-11-15T05:47:15;34.33;;;16.95;;
37647;SDS011;23490;53.656;10.076;2022-11-15T05:49:44;37.25;;;16.73;;
37647;SDS011;23490;53.656;10.076;2022-11-15T05:52:11;31.52;;;15.93;;
37647;SDS011;23490;53.656;10.076;2022-11-15T05:54:39;39.38;;;18.35;;
37647;SDS011;23490;53.656;10.076;2022-11-15T05:57:05;32.75;;;16.98;;
37647;SDS011;23490;53.656;10.076;2022-11-15T05:59:31;33.60;;;16.88;;
37647;SDS011;23490;53.656;10.076;2022-11-15T06:01:58;34.45;;;17.70;;
37647;SDS011;23490;53.656;10.076;2022-11-15T06:04:23;33.60;;;17.60;;
37647;SDS011;23490;53.656;10.076;2022-11-15T06:06:48;33.15;;;16.08;;
37647;SDS011;23490;53.656;10.076;2022-11-15T06:09:14;32.90;;;16.45;;
37647;SDS011;23490;53.656;10.076;2022-11-15T06:11:40;33.38;;;16.23;;
37647;SDS011;23490;53.656;10.076;2022-11-15T06:14:05;32.53;;;16.52;;
37647;SDS011;23490;53.656;10.076;2022-11-15T06:16:31;36.60;;;17.88;;
37647;SDS011;23490;53.656;10.076;2022-11-15T06:18:56;38.00;;;17.40;;
37647;SDS011;23490;53.656;10.076;2022-11-15T06:21:22;29.85;;;16.27;;
37647;SDS011;23490;53.656;10.076;2022-11-15T06:23:47;29.48;;;15.77;;
37647;SDS011;23490;53.656;10.076;2022-11-15T06:26:12;30.77;;;16.25;;
37647;SDS011;23490;53.656;10.076;2022-11-15T06:28:38;32.13;;;17.42;;
37647;SDS011;23490;53.656;10.076;2022-11-15T06:31:07;32.75;;;17.85;;
37647;SDS011;23490;53.656;10.076;2022-11-15T06:33:35;30.52;;;16.25;;
37647;SDS011;23490;53.656;10.076;2022-11-15T06:36:02;33.55;;;16.90;;
37647;SDS011;23490;53.656;10.076;2022-11-15T06:38:28;30.55;;;15.27;;
37647;SDS011;23490;53.656;10.076;2022-11-15T06:40:54;30.00;;;15.90;;
37647;SDS011;23490;53.656;10.076;2022-11-15T06:43:19;32.88;;;17.92;;
37647;SDS011;23490;53.656;10.076;2022-11-15T06:45:45;33.60;;;16.88;;
37647;SDS011;23490;53.656;10.076;2022-11-15T06:48:10;33.17;;;17.63;;
37647;SDS011;23490;53.656;10.076;2022-11-15T06:50:35;30.42;;;16.42;;
37647;SDS011;23490;53.656;10.076;2022-11-15T06:53:01;31.85;;;16.23;;
37647;SDS011;23490;53.656;10.076;2022-11-15T06:55:28;33.20;;;18.13;;
37647;SDS011;23490;53.656;10.076;2022-11-15T06:57:53;31.48;;;17.20;;
37647;SDS011;23490;53.656;10.076;2022-11-15T07:00:20;30.35;;;16.95;;
37647;SDS011;23490;53.656;10.076;2022-11-15T07:02:46;33.83;;;17.90;;
37647;SDS011;23490;53.656;10.076;2022-11-15T07:05:13;35.58;;;17.80;;
37647;SDS011;23490;53.656;10.076;2022-11-15T07:07:39;29.38;;;16.38;;
37647;SDS011;23490;53.656;10.076;2022-11-15T07:10:06;30.88;;;17.13;;
37647;SDS011;23490;53.656;10.076;2022-11-15T07:12:32;31.88;;;15.02;;
37647;SDS011;23490;53.656;10.076;2022-11-15T07:14:58;32.10;;;17.13;;
37647;SDS011;23490;53.656;10.076;2022-11-15T07:17:23;30.85;;;16.58;;
37647;SDS011;23490;53.656;10.076;2022-11-15T07:19:49;30.27;;;15.60;;
37647;SDS011;23490;53.656;10.076;2022-11-15T07:22:14;30.35;;;16.55;;
37647;SDS011;23490;53.656;10.076;2022-11-15T07:24:39;29.75;;;16.20;;
37647;SDS011;23490;53.656;10.076;2022-11-15T07:27:04;29.55;;;15.85;;
37647;SDS011;23490;53.656;10.076;2022-11-15T07:29:30;26.88;;;15.07;;
37647;SDS011;23490;53.656;10.076;2022-11-15T07:31:55;27.27;;;14.70;;
37647;SDS011;23490;53.656;10.076;2022-11-15T07:34:20;28.20;;;15.20;;
37647;SDS011;23490;53.656;10.076;2022-11-15T07:36:46;28.00;;;15.38;;
37647;SDS011;23490;53.656;10.076;2022-11-15T07:39:11;30.88;;;14.95;;
37647;SDS011;23490;53.656;10.076;2022-11-15T07:41:37;29.77;;;16.23;;
37647;SDS011;23490;53.656;10.076;2022-11-15T07:44:04;29.85;;;16.60;;
37647;SDS011;23490;53.656;10.076;2022-11-15T07:46:29;28.92;;;15.00;;
37647;SDS011;23490;53.656;10.076;2022-11-15T07:48:54;26.90;;;15.50;;
37647;SDS011;23490;53.656;10.076;2022-11-15T07:51:20;29.42;;;15.23;;
37647;SDS011;23490;53.656;10.076;2022-11-15T07:53:45;26.90;;;16.25;;
37647;SDS011;23490;53.656;10.076;2022-11-15T07:56:11;26.15;;;14.82;;
37647;SDS011;23490;53.656;10.076;2022-11-15T07:58:37;27.67;;;14.82;;
37647;SDS011;23490;53.656;10.076;2022-11-15T08:01:09;29.23;;;14.18;;
37647;SDS011;23490;53.656;10.076;2022-11-15T08:03:35;30.02;;;15.77;;
37647;SDS011;23490;53.656;10.076;2022-11-15T08:06:01;27.92;;;14.63;;
37647;SDS011;23490;53.656;10.076;2022-11-15T08:08:27;24.25;;;14.30;;
37647;SDS011;23490;53.656;10.076;2022-11-15T08:10:53;26.77;;;14.20;;
37647;SDS011;23490;53.656;10.076;2022-11-15T08:13:19;27.40;;;14.82;;
37647;SDS011;23490;53.656;10.076;2022-11-15T08:15:44;26.10;;;13.45;;
37647;SDS011;23490;53.656;10.076;2022-11-15T08:18:12;25.92;;;13.93;;
37647;SDS011;23490;53.656;10.076;2022-11-15T08:20:39;27.83;;;15.15;;
37647;SDS011;23490;53.656;10.076;2022-11-15T08:23:05;28.42;;;14.63;;
37647;SDS011;23490;53.656;10.076;2022-11-15T08:25:33;26.08;;;14.05;;
37647;SDS011;23490;53.656;10.076;2022-11-15T08:28:00;25.20;;;15.05;;
37647;SDS011;23490;53.656;10.076;2022-11-15T08:30:27;25.27;;;14.27;;
37647;SDS011;23490;53.656;10.076;2022-11-15T08:32:53;26.67;;;14.10;;
37647;SDS011;23490;53.656;10.076;2022-11-15T08:35:19;26.65;;;13.98;;
37647;SDS011;23490;53.656;10.076;2022-11-15T08:37:45;26.85;;;14.20;;
37647;SDS011;23490;53.656;10.076;2022-11-15T08:40:11;27.80;;;14.70;;
37647;SDS011;23490;53.656;10.076;2022-11-15T08:42:38;23.55;;;13.90;;
37647;SDS011;23490;53.656;10.076;2022-11-15T08:45:04;25.05;;;14.05;;
37647;SDS011;23490;53.656;10.076;2022-11-15T08:47:30;24.83;;;13.68;;
37647;SDS011;23490;53.656;10.076;2022-11-15T08:49:55;23.42;;;13.50;;
37647;SDS011;23490;53.656;10.076;2022-11-15T08:52:21;24.88;;;13.07;;
37647;SDS011;23490;53.656;10.076;2022-11-15T08:54:46;30.15;;;14.65;;
37647;SDS011;23490;53.656;10.076;2022-11-15T08:57:11;32.53;;;18.17;;
37647;SDS011;23490;53.656;10.076;2022-11-15T08:59:37;24.08;;;13.27;;
37647;SDS011;23490;53.656;10.076;2022-11-15T09:02:03;25.05;;;14.15;;
37647;SDS011;23490;53.656;10.076;2022-11-15T09:04:29;23.17;;;13.40;;
37647;SDS011;23490;53.656;10.076;2022-11-15T09:06:54;23.70;;;12.80;;
37647;SDS011;23490;53.656;10.076;2022-11-15T09:09:20;22.13;;;12.50;;
37647;SDS011;23490;53.656;10.076;2022-11-15T09:11:46;22.92;;;13.13;;
37647;SDS011;23490;53.656;10.076;2022-11-15T09:14:12;21.85;;;12.48;;
37647;SDS011;23490;53.656;10.076;2022-11-15T09:16:37;20.27;;;12.55;;
37647;SDS011;23490;53.656;10.076;2022-11-15T09:19:03;29.65;;;12.63;;
37647;SDS011;23490;53.656;10.076;2022-11-15T09:21:29;22.05;;;12.88;;
37647;SDS011;23490;53.656;10.076;2022-11-15T09:23:54;20.00;;;11.93;;
37647;SDS011;23490;53.656;10.076;2022-11-15T09:26:20;25.30;;;13.38;;
37647;SDS011;23490;53.656;10.076;2022-11-15T09:28:45;19.30;;;11.63;;
37647;SDS011;23490;53.656;10.076;2022-11-15T09:31:11;22.48;;;12.13;;
37647;SDS011;23490;53.656;10.076;2022-11-15T09:33:36;21.30;;;12.43;;
37647;SDS011;23490;53.656;10.076;2022-11-15T09:36:05;20.88;;;12.50;;
37647;SDS011;23490;53.656;10.076;2022-11-15T09:38:32;22.13;;;12.32;;
37647;SDS011;23490;53.656;10.076;2022-11-15T09:43:45;23.67;;;12.48;;
37647;SDS011;23490;53.656;10.076;2022-11-15T09:49:22;21.58;;;12.68;;
37647;SDS011;23490;53.656;10.076;2022-11-15T09:51:49;23.15;;;13.35;;
37647;SDS011;23490;53.656;10.076;2022-11-15T09:54:34;21.65;;;10.25;;
37647;SDS011;23490;53.656;10.076;2022-11-15T09:57:04;20.90;;;12.98;;
37647;SDS011;23490;53.656;10.076;2022-11-15T10:02:16;20.67;;;12.38;;
37647;SDS011;23490;53.656;10.076;2022-11-15T10:04:52;20.60;;;12.10;;
37647;SDS011;23490;53.656;10.076;2022-11-15T10:07:20;20.58;;;11.98;;
37647;SDS011;23490;53.656;10.076;2022-11-15T10:09:57;21.88;;;12.32;;
37647;SDS011;23490;53.656;10.076;2022-11-15T10:12:26;19.35;;;11.50;;
37647;SDS011;23490;53.656;10.076;2022-11-15T10:15:15;20.75;;;11.18;;
37647;SDS011;23490;53.656;10.076;2022-11-15T10:17:49;19.73;;;10.77;;
37647;SDS011;23490;53.656;10.076;2022-11-15T10:20:44;19.52;;;11.43;;
37647;SDS011;23490;53.656;10.076;2022-11-15T10:23:14;18.45;;;10.50;;
37647;SDS011;23490;53.656;10.076;2022-11-15T10:25:43;20.42;;;10.90;;
37647;SDS011;23490;53.656;10.076;2022-11-15T10:28:22;18.83;;;10.50;;
37647;SDS011;23490;53.656;10.076;2022-11-15T10:30:53;20.35;;;11.32;;
37647;SDS011;23490;53.656;10.076;2022-11-15T10:36:13;20.30;;;9.93;;
37647;SDS011;23490;53.656;10.076;2022-11-15T10:41:36;17.95;;;10.48;;
37647;SDS011;23490;53.656;10.076;2022-11-15T10:46:34;18.80;;;10.80;;
37647;SDS011;23490;53.656;10.076;2022-11-15T10:49:12;18.85;;;10.98;;
37647;SDS011;23490;53.656;10.076;2022-11-15T10:51:48;20.15;;;10.48;;
37647;SDS011;23490;53.656;10.076;2022-11-15T10:54:28;17.08;;;10.43;;
37647;SDS011;23490;53.656;10.076;2022-11-15T10:56:56;15.82;;;9.63;;
37647;SDS011;23490;53.656;10.076;2022-11-15T10:59:26;19.63;;;10.18;;
37647;SDS011;23490;53.656;10.076;2022-11-15T11:01:55;15.98;;;9.32;;
37647;SDS011;23490;53.656;10.076;2022-11-15T11:04:20;17.88;;;10.75;;
37647;SDS011;23490;53.656;10.076;2022-11-15T11:09:29;19.13;;;9.70;;
37647;SDS011;23490;53.656;10.076;2022-11-15T11:12:10;15.55;;;9.32;;
37647;SDS011;23490;53.656;10.076;2022-11-15T11:14:38;17.07;;;9.63;;
37647;SDS011;23490;53.656;10.076;2022-11-15T11:17:13;16.33;;;8.90;;
37647;SDS011;23490;53.656;10.076;2022-11-15T11:20:00;19.10;;;9.35;;
37647;SDS011;23490;53.656;10.076;2022-11-15T11:25:37;16.80;;;9.27;;
37647;SDS011;23490;53.656;10.076;2022-11-15T11:31:20;15.38;;;8.93;;
37647;SDS011;23490;53.656;10.076;2022-11-15T11:34:04;13.35;;;8.38;;
37647;SDS011;23490;53.656;10.076;2022-11-15T11:42:08;13.60;;;8.85;;
37647;SDS011;23490;53.656;10.076;2022-11-15T11:47:30;16.30;;;9.25;;
37647;SDS011;23490;53.656;10.076;2022-11-15T11:50:01;16.42;;;9.07;;
37647;SDS011;23490;53.656;10.076;2022-11-15T12:01:01;14.20;;;9.02;;
37647;SDS011;23490;53.656;10.076;2022-11-15T12:03:47;14.65;;;8.30;;
37647;SDS011;23490;53.656;10.076;2022-11-15T12:06:24;15.95;;;8.95;;
37647;SDS011;23490;53.656;10.076;2022-11-15T12:08:58;14.02;;;8.77;;
37647;SDS011;23490;53.656;10.076;2022-11-15T12:11:29;16.55;;;8.63;;
37647;SDS011;23490;53.656;10.076;2022-11-15T12:14:03;14.50;;;8.68;;
37647;SDS011;23490;53.656;10.076;2022-11-15T12:16:46;15.05;;;8.95;;
37647;SDS011;23490;53.656;10.076;2022-11-15T12:19:11;14.07;;;8.85;;
37647;SDS011;23490;53.656;10.076;2022-11-15T12:30:19;13.55;;;7.88;;
37647;SDS011;23490;53.656;10.076;2022-11-15T12:32:53;12.23;;;7.70;;
37647;SDS011;23490;53.656;10.076;2022-11-15T12:35:24;14.48;;;7.95;;
37647;SDS011;23490;53.656;10.076;2022-11-15T12:37:58;16.95;;;8.65;;
37647;SDS011;23490;53.656;10.076;2022-11-15T12:40:28;16.25;;;8.18;;
37647;SDS011;23490;53.656;10.076;2022-11-15T12:43:36;13.77;;;8.45;;
37647;SDS011;23490;53.656;10.076;2022-11-15T12:46:04;13.38;;;8.00;;
37647;SDS011;23490;53.656;10.076;2022-11-15T12:51:00;11.18;;;8.18;;
37647;SDS011;23490;53.656;10.076;2022-11-15T12:53:27;11.95;;;7.63;;
37647;SDS011;23490;53.656;10.076;2022-11-15T12:58:39;12.52;;;7.65;;
37647;SDS011;23490;53.656;10.076;2022-11-15T13:01:09;13.25;;;8.13;;
37647;SDS011;23490;53.656;10.076;2022-11-15T13:03:35;11.77;;;7.72;;
37647;SDS011;23490;53.656;10.076;2022-11-15T13:06:36;12.98;;;8.05;;
37647;SDS011;23490;53.656;10.076;2022-11-15T13:09:49;13.20;;;7.80;;
37647;SDS011;23490;53.656;10.076;2022-11-15T13:12:48;13.75;;;7.43;;
37647;SDS011;23490;53.656;10.076;2022-11-15T13:28:02;10.98;;;7.20;;
37647;SDS011;23490;53.656;10.076;2022-11-15T13:30:36;13.00;;;7.57;;
37647;SDS011;23490;53.656;10.076;2022-11-15T13:33:08;16.83;;;8.15;;
37647;SDS011;23490;53.656;10.076;2022-11-15T13:35:36;11.15;;;7.07;;
37647;SDS011;23490;53.656;10.076;2022-11-15T13:38:04;12.68;;;6.82;;
37647;SDS011;23490;53.656;10.076;2022-11-15T13:40:36;13.23;;;7.72;;
37647;SDS011;23490;53.656;10.076;2022-11-15T13:46:03;13.10;;;7.50;;
37647;SDS011;23490;53.656;10.076;2022-11-15T13:48:29;11.63;;;7.03;;
37647;SDS011;23490;53.656;10.076;2022-11-15T13:50:54;13.18;;;8.40;;
37647;SDS011;23490;53.656;10.076;2022-11-15T13:53:21;12.05;;;7.30;;
37647;SDS011;23490;53.656;10.076;2022-11-15T13:55:47;11.57;;;6.78;;
37647;SDS011;23490;53.656;10.076;2022-11-15T13:58:12;12.70;;;7.45;;
37647;SDS011;23490;53.656;10.076;2022-11-15T14:00:41;14.23;;;7.57;;
37647;SDS011;23490;53.656;10.076;2022-11-15T14:03:18;13.57;;;7.30;;
37647;SDS011;23490;53.656;10.076;2022-11-15T14:06:03;13.20;;;7.75;;
37647;SDS011;23490;53.656;10.076;2022-11-15T14:08:36;14.60;;;7.60;;
37647;SDS011;23490;53.656;10.076;2022-11-15T14:13:33;13.90;;;7.68;;
37647;SDS011;23490;53.656;10.076;2022-11-15T14:19:00;12.55;;;7.43;;
37647;SDS011;23490;53.656;10.076;2022-11-15T14:21:25;13.80;;;7.35;;
37647;SDS011;23490;53.656;10.076;2022-11-15T14:23:51;13.23;;;7.13;;
37647;SDS011;23490;53.656;10.076;2022-11-15T14:26:27;12.73;;;7.40;;
37647;SDS011;23490;53.656;10.076;2022-11-15T14:28:57;13.90;;;7.72;;
37647;SDS011;23490;53.656;10.076;2022-11-15T14:31:42;12.70;;;7.25;;
37647;SDS011;23490;53.656;10.076;2022-11-15T14:34:08;12.10;;;6.78;;
37647;SDS011;23490;53.656;10.076;2022-11-15T14:36:33;11.60;;;7.00;;
37647;SDS011;23490;53.656;10.076;2022-11-15T14:38:59;15.02;;;7.72;;
37647;SDS011;23490;53.656;10.076;2022-11-15T14:41:24;12.32;;;7.68;;
37647;SDS011;23490;53.656;10.076;2022-11-15T14:43:51;14.30;;;8.10;;
37647;SDS011;23490;53.656;10.076;2022-11-15T14:46:17;11.50;;;7.55;;
37647;SDS011;23490;53.656;10.076;2022-11-15T14:48:43;12.02;;;7.47;;
37647;SDS011;23490;53.656;10.076;2022-11-15T14:51:12;12.82;;;7.93;;
37647;SDS011;23490;53.656;10.076;2022-11-15T14:56:04;12.57;;;7.70;;
37647;SDS011;23490;53.656;10.076;2022-11-15T14:58:29;11.40;;;7.35;;
37647;SDS011;23490;53.656;10.076;2022-11-15T15:00:55;14.07;;;7.30;;
37647;SDS011;23490;53.656;10.076;2022-11-15T15:03:20;11.90;;;7.53;;
37647;SDS011;23490;53.656;10.076;2022-11-15T15:05:45;13.25;;;8.10;;
37647;SDS011;23490;53.656;10.076;2022-11-15T15:08:11;12.52;;;7.53;;
37647;SDS011;23490;53.656;10.076;2022-11-15T15:10:43;13.88;;;7.55;;
37647;SDS011;23490;53.656;10.076;2022-11-15T15:13:17;13.73;;;7.47;;
37647;SDS011;23490;53.656;10.076;2022-11-15T15:15:47;13.10;;;7.90;;
37647;SDS011;23490;53.656;10.076;2022-11-15T15:18:13;13.15;;;7.53;;
37647;SDS011;23490;53.656;10.076;2022-11-15T15:20:40;11.82;;;7.15;;
37647;SDS011;23490;53.656;10.076;2022-11-15T15:23:19;12.75;;;7.30;;
37647;SDS011;23490;53.656;10.076;2022-11-15T15:25:45;13.55;;;8.25;;
37647;SDS011;23490;53.656;10.076;2022-11-15T15:28:12;13.45;;;7.22;;
37647;SDS011;23490;53.656;10.076;2022-11-15T15:30:38;14.65;;;7.72;;
37647;SDS011;23490;53.656;10.076;2022-11-15T15:33:03;13.40;;;7.82;;
37647;SDS011;23490;53.656;10.076;2022-11-15T15:35:29;13.13;;;7.97;;
37647;SDS011;23490;53.656;10.076;2022-11-15T15:37:57;14.43;;;8.32;;
37647;SDS011;23490;53.656;10.076;2022-11-15T15:40:23;13.98;;;8.60;;
37647;SDS011;23490;53.656;10.076;2022-11-15T15:42:50;14.00;;;8.23;;
37647;SDS011;23490;53.656;10.076;2022-11-15T15:45:16;13.25;;;8.50;;
37647;SDS011;23490;53.656;10.076;2022-11-15T15:47:42;11.80;;;7.93;;
37647;SDS011;23490;53.656;10.076;2022-11-15T15:50:14;13.52;;;7.82;;
37647;SDS011;23490;53.656;10.076;2022-11-15T15:52:44;12.70;;;7.30;;
37647;SDS011;23490;53.656;10.076;2022-11-15T15:55:10;13.18;;;8.23;;
37647;SDS011;23490;53.656;10.076;2022-11-15T15:57:35;14.50;;;7.85;;
37647;SDS011;23490;53.656;10.076;2022-11-15T16:00:01;14.48;;;8.25;;
37647;SDS011;23490;53.656;10.076;2022-11-15T16:02:28;17.27;;;9.18;;
37647;SDS011;23490;53.656;10.076;2022-11-15T16:04:53;12.68;;;8.25;;
37647;SDS011;23490;53.656;10.076;2022-11-15T16:07:20;14.88;;;8.80;;
37647;SDS011;23490;53.656;10.076;2022-11-15T16:09:48;15.23;;;9.18;;
37647;SDS011;23490;53.656;10.076;2022-11-15T16:12:30;13.70;;;8.25;;